sensor_id;sensor_type;location;lat;lon;timestamp;P1;durP1;ratioP1;P2;durP2;ratioP2
60582;SDS011;46415;47.536;19.066;2022-11-27T00:00:50;14.63;;;9.05;;
60582;SDS011;46415;47.536;19.066;2022-11-27T00:03:54;18.85;;;10.65;;
60582;SDS011;46415;47.536;19.066;2022-11-27T00:06:57;16.73;;;8.77;;
60582;SDS011;46415;47.536;19.066;2022-11-27T00:10:00;19.17;;;9.02;;
60582;SDS011;46415;47.536;19.066;2022-11-27T00:13:02;12.88;;;8.93;;
60582;SDS011;46415;47.536;19.066;2022-11-27T00:16:05;17.00;;;11.02;;
60582;SDS011;46415;47.536;19.066;2022-11-27T00:19:09;19.12;;;11.10;;
60582;SDS011;46415;47.536;19.066;2022-11-27T00:22:12;17.35;;;11.52;;
60582;SDS011;46415;47.536;19.066;2022-11-27T00:25:15;18.37;;;9.35;;
60582;SDS011;46415;47.536;19.066;2022-11-27T00:28:18;23.52;;;12.32;;
60582;SDS011;46415;47.536;19.066;2022-11-27T00:31:23;18.95;;;12.35;;
60582;SDS011;46415;47.536;19.066;2022-11-27T00:34:30;17.87;;;11.73;;
60582;SDS011;46415;47.536;19.066;2022-11-27T00:37:33;22.80;;;11.52;;
60582;SDS011;46415;47.536;19.066;2022-11-27T00:40:36;18.05;;;12.40;;
60582;SDS011;46415;47.536;19.066;2022-11-27T00:43:38;22.48;;;13.38;;
60582;SDS011;46415;47.536;19.066;2022-11-27T00:46:46;24.92;;;14.05;;
60582;SDS011;46415;47.536;19.066;2022-11-27T00:49:49;18.87;;;13.15;;
60582;SDS011;46415;47.536;19.066;2022-11-27T00:52:51;27.42;;;16.73;;
60582;SDS011;46415;47.536;19.066;2022-11-27T00:55:54;22.30;;;12.55;;
60582;SDS011;46415;47.536;19.066;2022-11-27T00:58:58;23.08;;;13.30;;
60582;SDS011;46415;47.536;19.066;2022-11-27T01:02:01;24.37;;;13.50;;
60582;SDS011;46415;47.536;19.066;2022-11-27T01:05:04;29.48;;;16.02;;
60582;SDS011;46415;47.536;19.066;2022-11-27T01:08:07;27.13;;;14.80;;
60582;SDS011;46415;47.536;19.066;2022-11-27T01:11:14;26.15;;;15.10;;
60582;SDS011;46415;47.536;19.066;2022-11-27T01:14:19;22.08;;;14.45;;
60582;SDS011;46415;47.536;19.066;2022-11-27T01:17:21;25.23;;;15.45;;
60582;SDS011;46415;47.536;19.066;2022-11-27T01:20:24;27.95;;;16.12;;
60582;SDS011;46415;47.536;19.066;2022-11-27T01:23:27;21.02;;;13.05;;
60582;SDS011;46415;47.536;19.066;2022-11-27T01:26:29;26.10;;;17.15;;
60582;SDS011;46415;47.536;19.066;2022-11-27T01:29:33;25.33;;;14.57;;
60582;SDS011;46415;47.536;19.066;2022-11-27T01:32:35;23.38;;;14.68;;
60582;SDS011;46415;47.536;19.066;2022-11-27T01:35:38;28.58;;;16.65;;
60582;SDS011;46415;47.536;19.066;2022-11-27T01:38:41;28.60;;;16.92;;
60582;SDS011;46415;47.536;19.066;2022-11-27T01:41:45;28.92;;;16.80;;
60582;SDS011;46415;47.536;19.066;2022-11-27T01:44:50;28.55;;;14.95;;
60582;SDS011;46415;47.536;19.066;2022-11-27T01:47:56;25.08;;;15.63;;
60582;SDS011;46415;47.536;19.066;2022-11-27T01:51:02;28.23;;;15.75;;
60582;SDS011;46415;47.536;19.066;2022-11-27T01:54:04;26.42;;;14.57;;
60582;SDS011;46415;47.536;19.066;2022-11-27T01:57:12;26.30;;;15.30;;
60582;SDS011;46415;47.536;19.066;2022-11-27T02:00:17;24.95;;;15.32;;
60582;SDS011;46415;47.536;19.066;2022-11-27T02:03:21;26.05;;;15.07;;
60582;SDS011;46415;47.536;19.066;2022-11-27T02:06:24;24.20;;;14.65;;
60582;SDS011;46415;47.536;19.066;2022-11-27T02:09:27;24.98;;;15.90;;
60582;SDS011;46415;47.536;19.066;2022-11-27T02:15:42;26.90;;;14.35;;
60582;SDS011;46415;47.536;19.066;2022-11-27T02:18:55;20.62;;;13.25;;
60582;SDS011;46415;47.536;19.066;2022-11-27T02:22:12;24.05;;;13.82;;
60582;SDS011;46415;47.536;19.066;2022-11-27T02:28:59;19.15;;;13.85;;
60582;SDS011;46415;47.536;19.066;2022-11-27T02:32:09;23.12;;;13.10;;
60582;SDS011;46415;47.536;19.066;2022-11-27T02:35:22;24.40;;;14.27;;
60582;SDS011;46415;47.536;19.066;2022-11-27T02:38:33;28.05;;;15.48;;
60582;SDS011;46415;47.536;19.066;2022-11-27T02:41:50;24.95;;;14.20;;
60582;SDS011;46415;47.536;19.066;2022-11-27T02:45:00;22.25;;;14.23;;
60582;SDS011;46415;47.536;19.066;2022-11-27T02:48:05;17.77;;;12.68;;
60582;SDS011;46415;47.536;19.066;2022-11-27T02:51:10;23.17;;;13.50;;
60582;SDS011;46415;47.536;19.066;2022-11-27T02:54:16;22.70;;;13.82;;
60582;SDS011;46415;47.536;19.066;2022-11-27T02:57:23;23.95;;;13.95;;
60582;SDS011;46415;47.536;19.066;2022-11-27T03:00:28;23.08;;;12.48;;
60582;SDS011;46415;47.536;19.066;2022-11-27T03:03:34;20.92;;;11.45;;
60582;SDS011;46415;47.536;19.066;2022-11-27T03:06:49;21.33;;;11.65;;
60582;SDS011;46415;47.536;19.066;2022-11-27T03:09:56;17.50;;;10.48;;
60582;SDS011;46415;47.536;19.066;2022-11-27T03:13:03;19.30;;;12.15;;
60582;SDS011;46415;47.536;19.066;2022-11-27T03:19:48;21.30;;;11.88;;
60582;SDS011;46415;47.536;19.066;2022-11-27T03:22:58;20.05;;;11.95;;
60582;SDS011;46415;47.536;19.066;2022-11-27T03:26:01;22.83;;;11.40;;
60582;SDS011;46415;47.536;19.066;2022-11-27T03:29:05;22.13;;;11.00;;
60582;SDS011;46415;47.536;19.066;2022-11-27T03:32:11;18.17;;;11.68;;
60582;SDS011;46415;47.536;19.066;2022-11-27T03:35:15;15.20;;;9.73;;
60582;SDS011;46415;47.536;19.066;2022-11-27T03:38:21;25.33;;;12.02;;
60582;SDS011;46415;47.536;19.066;2022-11-27T03:47:55;28.62;;;12.45;;
60582;SDS011;46415;47.536;19.066;2022-11-27T03:54:43;14.18;;;9.88;;
60582;SDS011;46415;47.536;19.066;2022-11-27T03:58:04;20.60;;;12.48;;
60582;SDS011;46415;47.536;19.066;2022-11-27T04:01:10;20.43;;;10.40;;
60582;SDS011;46415;47.536;19.066;2022-11-27T04:04:17;19.75;;;12.02;;
60582;SDS011;46415;47.536;19.066;2022-11-27T04:07:20;21.35;;;14.07;;
60582;SDS011;46415;47.536;19.066;2022-11-27T04:10:23;22.73;;;13.23;;
60582;SDS011;46415;47.536;19.066;2022-11-27T04:13:25;23.38;;;12.20;;
60582;SDS011;46415;47.536;19.066;2022-11-27T04:16:31;25.98;;;12.93;;
60582;SDS011;46415;47.536;19.066;2022-11-27T04:19:34;31.27;;;14.90;;
60582;SDS011;46415;47.536;19.066;2022-11-27T04:22:37;17.12;;;12.52;;
60582;SDS011;46415;47.536;19.066;2022-11-27T04:25:40;26.48;;;14.13;;
60582;SDS011;46415;47.536;19.066;2022-11-27T04:28:42;28.10;;;16.23;;
60582;SDS011;46415;47.536;19.066;2022-11-27T04:31:45;27.95;;;15.60;;
60582;SDS011;46415;47.536;19.066;2022-11-27T04:34:48;37.53;;;14.45;;
60582;SDS011;46415;47.536;19.066;2022-11-27T04:37:50;26.35;;;16.62;;
60582;SDS011;46415;47.536;19.066;2022-11-27T04:40:53;27.23;;;16.12;;
60582;SDS011;46415;47.536;19.066;2022-11-27T04:43:56;28.70;;;17.30;;
60582;SDS011;46415;47.536;19.066;2022-11-27T04:46:58;25.67;;;16.10;;
60582;SDS011;46415;47.536;19.066;2022-11-27T04:50:03;31.10;;;16.80;;
60582;SDS011;46415;47.536;19.066;2022-11-27T04:53:07;31.02;;;18.05;;
60582;SDS011;46415;47.536;19.066;2022-11-27T04:56:09;32.40;;;17.98;;
60582;SDS011;46415;47.536;19.066;2022-11-27T04:59:12;33.45;;;17.73;;
60582;SDS011;46415;47.536;19.066;2022-11-27T05:02:15;31.58;;;15.48;;
60582;SDS011;46415;47.536;19.066;2022-11-27T05:05:17;30.10;;;14.48;;
60582;SDS011;46415;47.536;19.066;2022-11-27T05:08:20;28.85;;;17.10;;
60582;SDS011;46415;47.536;19.066;2022-11-27T05:11:23;29.12;;;15.40;;
60582;SDS011;46415;47.536;19.066;2022-11-27T05:14:25;25.45;;;13.95;;
60582;SDS011;46415;47.536;19.066;2022-11-27T05:17:30;27.65;;;16.60;;
60582;SDS011;46415;47.536;19.066;2022-11-27T05:20:33;33.58;;;15.95;;
60582;SDS011;46415;47.536;19.066;2022-11-27T05:23:35;23.85;;;14.90;;
60582;SDS011;46415;47.536;19.066;2022-11-27T05:26:38;36.58;;;14.98;;
60582;SDS011;46415;47.536;19.066;2022-11-27T05:29:42;32.70;;;14.68;;
60582;SDS011;46415;47.536;19.066;2022-11-27T05:32:44;27.13;;;15.40;;
60582;SDS011;46415;47.536;19.066;2022-11-27T05:35:47;26.08;;;16.30;;
60582;SDS011;46415;47.536;19.066;2022-11-27T05:38:49;30.58;;;15.77;;
60582;SDS011;46415;47.536;19.066;2022-11-27T05:41:52;28.80;;;14.65;;
60582;SDS011;46415;47.536;19.066;2022-11-27T05:44:55;36.25;;;17.00;;
60582;SDS011;46415;47.536;19.066;2022-11-27T05:48:00;32.25;;;16.67;;
60582;SDS011;46415;47.536;19.066;2022-11-27T05:51:02;31.83;;;18.02;;
60582;SDS011;46415;47.536;19.066;2022-11-27T05:54:06;24.85;;;15.23;;
60582;SDS011;46415;47.536;19.066;2022-11-27T05:57:09;26.95;;;14.52;;
60582;SDS011;46415;47.536;19.066;2022-11-27T06:00:12;23.40;;;13.48;;
60582;SDS011;46415;47.536;19.066;2022-11-27T06:03:15;25.88;;;13.15;;
60582;SDS011;46415;47.536;19.066;2022-11-27T06:06:18;27.80;;;14.27;;
60582;SDS011;46415;47.536;19.066;2022-11-27T06:09:21;23.85;;;12.27;;
60582;SDS011;46415;47.536;19.066;2022-11-27T06:12:24;25.42;;;14.65;;
60582;SDS011;46415;47.536;19.066;2022-11-27T06:15:27;21.87;;;13.60;;
60582;SDS011;46415;47.536;19.066;2022-11-27T06:18:29;17.30;;;10.23;;
60582;SDS011;46415;47.536;19.066;2022-11-27T06:21:32;18.00;;;9.55;;
60582;SDS011;46415;47.536;19.066;2022-11-27T06:24:35;21.25;;;10.07;;
60582;SDS011;46415;47.536;19.066;2022-11-27T06:27:37;17.87;;;10.15;;
60582;SDS011;46415;47.536;19.066;2022-11-27T06:30:41;14.25;;;8.70;;
60582;SDS011;46415;47.536;19.066;2022-11-27T06:33:44;15.30;;;9.70;;
60582;SDS011;46415;47.536;19.066;2022-11-27T06:36:50;19.30;;;8.75;;
60582;SDS011;46415;47.536;19.066;2022-11-27T06:39:53;16.33;;;9.40;;
60582;SDS011;46415;47.536;19.066;2022-11-27T06:42:55;23.30;;;10.23;;
60582;SDS011;46415;47.536;19.066;2022-11-27T06:45:58;23.12;;;13.38;;
60582;SDS011;46415;47.536;19.066;2022-11-27T06:49:02;20.37;;;12.40;;
60582;SDS011;46415;47.536;19.066;2022-11-27T06:52:05;22.25;;;12.37;;
60582;SDS011;46415;47.536;19.066;2022-11-27T06:55:07;23.85;;;12.68;;
60582;SDS011;46415;47.536;19.066;2022-11-27T06:58:10;20.75;;;12.13;;
60582;SDS011;46415;47.536;19.066;2022-11-27T07:01:14;23.08;;;12.27;;
60582;SDS011;46415;47.536;19.066;2022-11-27T07:04:18;22.33;;;11.30;;
60582;SDS011;46415;47.536;19.066;2022-11-27T07:07:21;20.05;;;12.07;;
60582;SDS011;46415;47.536;19.066;2022-11-27T07:10:24;19.67;;;10.68;;
60582;SDS011;46415;47.536;19.066;2022-11-27T07:13:27;19.87;;;10.68;;
60582;SDS011;46415;47.536;19.066;2022-11-27T07:16:34;25.25;;;12.05;;
60582;SDS011;46415;47.536;19.066;2022-11-27T07:19:37;19.17;;;11.55;;
60582;SDS011;46415;47.536;19.066;2022-11-27T07:22:41;20.05;;;12.30;;
60582;SDS011;46415;47.536;19.066;2022-11-27T07:25:43;19.98;;;11.77;;
60582;SDS011;46415;47.536;19.066;2022-11-27T07:28:47;18.70;;;11.52;;
60582;SDS011;46415;47.536;19.066;2022-11-27T07:31:49;23.77;;;11.90;;
60582;SDS011;46415;47.536;19.066;2022-11-27T07:34:53;20.35;;;12.35;;
60582;SDS011;46415;47.536;19.066;2022-11-27T07:37:55;24.25;;;11.55;;
60582;SDS011;46415;47.536;19.066;2022-11-27T07:40:59;20.75;;;11.35;;
60582;SDS011;46415;47.536;19.066;2022-11-27T07:44:02;22.10;;;11.73;;
60582;SDS011;46415;47.536;19.066;2022-11-27T07:47:05;21.77;;;11.27;;
60582;SDS011;46415;47.536;19.066;2022-11-27T07:50:08;26.33;;;12.80;;
60582;SDS011;46415;47.536;19.066;2022-11-27T07:53:12;19.98;;;10.93;;
60582;SDS011;46415;47.536;19.066;2022-11-27T07:56:14;24.20;;;13.05;;
60582;SDS011;46415;47.536;19.066;2022-11-27T07:59:17;21.98;;;11.88;;
60582;SDS011;46415;47.536;19.066;2022-11-27T08:02:20;22.20;;;12.30;;
60582;SDS011;46415;47.536;19.066;2022-11-27T08:05:22;23.87;;;11.40;;
60582;SDS011;46415;47.536;19.066;2022-11-27T08:08:25;22.87;;;11.80;;
60582;SDS011;46415;47.536;19.066;2022-11-27T08:11:31;18.00;;;10.88;;
60582;SDS011;46415;47.536;19.066;2022-11-27T08:14:36;24.35;;;13.77;;
60582;SDS011;46415;47.536;19.066;2022-11-27T08:17:39;24.65;;;12.98;;
60582;SDS011;46415;47.536;19.066;2022-11-27T08:20:42;25.92;;;12.68;;
60582;SDS011;46415;47.536;19.066;2022-11-27T08:23:44;25.30;;;12.30;;
60582;SDS011;46415;47.536;19.066;2022-11-27T08:26:47;25.35;;;12.23;;
60582;SDS011;46415;47.536;19.066;2022-11-27T08:29:50;23.45;;;12.40;;
60582;SDS011;46415;47.536;19.066;2022-11-27T08:32:53;28.42;;;12.52;;
60582;SDS011;46415;47.536;19.066;2022-11-27T08:35:56;20.17;;;11.57;;
60582;SDS011;46415;47.536;19.066;2022-11-27T08:38:58;22.17;;;10.52;;
60582;SDS011;46415;47.536;19.066;2022-11-27T08:42:01;26.87;;;12.00;;
60582;SDS011;46415;47.536;19.066;2022-11-27T08:45:04;24.23;;;11.93;;
60582;SDS011;46415;47.536;19.066;2022-11-27T08:48:07;24.02;;;11.23;;
60582;SDS011;46415;47.536;19.066;2022-11-27T08:51:11;19.75;;;10.15;;
60582;SDS011;46415;47.536;19.066;2022-11-27T08:54:16;19.23;;;10.80;;
60582;SDS011;46415;47.536;19.066;2022-11-27T08:57:18;22.13;;;12.52;;
60582;SDS011;46415;47.536;19.066;2022-11-27T09:00:23;21.80;;;11.15;;
60582;SDS011;46415;47.536;19.066;2022-11-27T09:03:29;24.30;;;11.85;;
60582;SDS011;46415;47.536;19.066;2022-11-27T09:06:32;25.02;;;12.30;;
60582;SDS011;46415;47.536;19.066;2022-11-27T09:09:38;21.80;;;11.38;;
60582;SDS011;46415;47.536;19.066;2022-11-27T09:12:41;23.38;;;11.55;;
60582;SDS011;46415;47.536;19.066;2022-11-27T09:15:45;22.15;;;11.02;;
60582;SDS011;46415;47.536;19.066;2022-11-27T09:18:49;24.08;;;11.55;;
60582;SDS011;46415;47.536;19.066;2022-11-27T09:21:53;28.73;;;12.45;;
60582;SDS011;46415;47.536;19.066;2022-11-27T09:24:55;25.52;;;10.48;;
60582;SDS011;46415;47.536;19.066;2022-11-27T09:27:58;24.73;;;11.23;;
60582;SDS011;46415;47.536;19.066;2022-11-27T09:31:02;23.95;;;9.95;;
60582;SDS011;46415;47.536;19.066;2022-11-27T09:34:05;22.23;;;10.98;;
60582;SDS011;46415;47.536;19.066;2022-11-27T09:37:08;23.05;;;12.60;;
60582;SDS011;46415;47.536;19.066;2022-11-27T09:40:14;24.48;;;11.70;;
60582;SDS011;46415;47.536;19.066;2022-11-27T09:43:22;20.30;;;10.47;;
60582;SDS011;46415;47.536;19.066;2022-11-27T09:46:34;22.70;;;10.48;;
60582;SDS011;46415;47.536;19.066;2022-11-27T09:49:46;23.85;;;11.95;;
60582;SDS011;46415;47.536;19.066;2022-11-27T09:52:58;26.35;;;13.05;;
60582;SDS011;46415;47.536;19.066;2022-11-27T09:56:07;28.00;;;12.98;;
60582;SDS011;46415;47.536;19.066;2022-11-27T09:59:18;27.90;;;12.85;;
60582;SDS011;46415;47.536;19.066;2022-11-27T10:02:28;31.25;;;12.95;;
60582;SDS011;46415;47.536;19.066;2022-11-27T10:15:18;27.27;;;11.48;;
60582;SDS011;46415;47.536;19.066;2022-11-27T10:18:39;22.73;;;10.95;;
60582;SDS011;46415;47.536;19.066;2022-11-27T10:21:58;27.58;;;12.95;;
60582;SDS011;46415;47.536;19.066;2022-11-27T10:25:15;25.23;;;12.70;;
60582;SDS011;46415;47.536;19.066;2022-11-27T10:31:49;27.10;;;12.32;;
60582;SDS011;46415;47.536;19.066;2022-11-27T10:38:10;27.95;;;12.45;;
60582;SDS011;46415;47.536;19.066;2022-11-27T10:41:17;31.95;;;11.95;;
60582;SDS011;46415;47.536;19.066;2022-11-27T10:47:59;29.87;;;11.90;;
60582;SDS011;46415;47.536;19.066;2022-11-27T10:51:02;25.48;;;11.45;;
60582;SDS011;46415;47.536;19.066;2022-11-27T10:54:12;29.92;;;11.77;;
60582;SDS011;46415;47.536;19.066;2022-11-27T11:00:47;33.67;;;13.70;;
60582;SDS011;46415;47.536;19.066;2022-11-27T11:04:05;22.73;;;10.57;;
60582;SDS011;46415;47.536;19.066;2022-11-27T11:07:28;30.10;;;12.35;;
60582;SDS011;46415;47.536;19.066;2022-11-27T11:10:35;32.03;;;13.23;;
60582;SDS011;46415;47.536;19.066;2022-11-27T11:16:42;24.77;;;11.43;;
60582;SDS011;46415;47.536;19.066;2022-11-27T11:19:45;29.55;;;12.93;;
60582;SDS011;46415;47.536;19.066;2022-11-27T11:22:48;27.77;;;12.20;;
60582;SDS011;46415;47.536;19.066;2022-11-27T11:25:52;29.42;;;11.35;;
60582;SDS011;46415;47.536;19.066;2022-11-27T11:28:58;27.45;;;11.73;;
60582;SDS011;46415;47.536;19.066;2022-11-27T11:32:10;30.27;;;10.85;;
60582;SDS011;46415;47.536;19.066;2022-11-27T11:38:33;28.80;;;10.43;;
60582;SDS011;46415;47.536;19.066;2022-11-27T11:41:37;29.73;;;11.52;;
60582;SDS011;46415;47.536;19.066;2022-11-27T11:44:40;35.55;;;12.50;;
60582;SDS011;46415;47.536;19.066;2022-11-27T11:47:50;30.37;;;11.12;;
60582;SDS011;46415;47.536;19.066;2022-11-27T11:50:53;31.12;;;10.88;;
60582;SDS011;46415;47.536;19.066;2022-11-27T12:08:07;26.50;;;10.48;;
60582;SDS011;46415;47.536;19.066;2022-11-27T12:11:18;24.02;;;10.82;;
60582;SDS011;46415;47.536;19.066;2022-11-27T12:14:38;22.50;;;8.93;;
60582;SDS011;46415;47.536;19.066;2022-11-27T12:21:15;21.85;;;10.80;;
60582;SDS011;46415;47.536;19.066;2022-11-27T12:24:28;23.92;;;10.25;;
60582;SDS011;46415;47.536;19.066;2022-11-27T12:38:31;26.35;;;11.38;;
60582;SDS011;46415;47.536;19.066;2022-11-27T12:41:59;20.02;;;9.77;;
60582;SDS011;46415;47.536;19.066;2022-11-27T12:45:16;22.08;;;9.50;;
60582;SDS011;46415;47.536;19.066;2022-11-27T12:48:34;22.20;;;10.00;;
60582;SDS011;46415;47.536;19.066;2022-11-27T12:58:00;16.35;;;8.38;;
60582;SDS011;46415;47.536;19.066;2022-11-27T13:01:09;24.23;;;10.77;;
60582;SDS011;46415;47.536;19.066;2022-11-27T13:07:36;21.95;;;10.32;;
60582;SDS011;46415;47.536;19.066;2022-11-27T13:10:46;21.95;;;10.07;;
60582;SDS011;46415;47.536;19.066;2022-11-27T13:13:56;21.12;;;9.90;;
60582;SDS011;46415;47.536;19.066;2022-11-27T13:17:05;16.62;;;9.05;;
60582;SDS011;46415;47.536;19.066;2022-11-27T13:20:18;16.45;;;8.45;;
60582;SDS011;46415;47.536;19.066;2022-11-27T13:23:31;17.83;;;8.23;;
60582;SDS011;46415;47.536;19.066;2022-11-27T13:30:05;15.35;;;6.95;;
60582;SDS011;46415;47.536;19.066;2022-11-27T13:33:17;13.02;;;6.20;;
60582;SDS011;46415;47.536;19.066;2022-11-27T13:36:38;13.32;;;7.15;;
60582;SDS011;46415;47.536;19.066;2022-11-27T13:39:43;16.30;;;7.70;;
60582;SDS011;46415;47.536;19.066;2022-11-27T13:42:49;18.85;;;8.80;;
60582;SDS011;46415;47.536;19.066;2022-11-27T13:46:03;15.20;;;8.18;;
60582;SDS011;46415;47.536;19.066;2022-11-27T13:49:16;20.65;;;8.70;;
60582;SDS011;46415;47.536;19.066;2022-11-27T13:52:26;14.55;;;8.65;;
60582;SDS011;46415;47.536;19.066;2022-11-27T13:55:38;14.65;;;7.03;;
60582;SDS011;46415;47.536;19.066;2022-11-27T13:58:52;12.07;;;7.15;;
60582;SDS011;46415;47.536;19.066;2022-11-27T14:02:03;15.63;;;8.52;;
60582;SDS011;46415;47.536;19.066;2022-11-27T14:05:08;20.42;;;8.75;;
60582;SDS011;46415;47.536;19.066;2022-11-27T14:08:18;14.65;;;7.47;;
60582;SDS011;46415;47.536;19.066;2022-11-27T14:11:43;13.82;;;7.70;;
60582;SDS011;46415;47.536;19.066;2022-11-27T14:21:19;14.50;;;6.70;;
60582;SDS011;46415;47.536;19.066;2022-11-27T14:24:40;11.73;;;6.80;;
60582;SDS011;46415;47.536;19.066;2022-11-27T14:27:47;12.00;;;7.60;;
60582;SDS011;46415;47.536;19.066;2022-11-27T14:30:59;16.27;;;7.72;;
60582;SDS011;46415;47.536;19.066;2022-11-27T14:34:02;12.95;;;6.82;;
60582;SDS011;46415;47.536;19.066;2022-11-27T14:37:26;13.38;;;7.82;;
60582;SDS011;46415;47.536;19.066;2022-11-27T14:40:35;13.20;;;7.37;;
60582;SDS011;46415;47.536;19.066;2022-11-27T14:43:38;12.82;;;6.90;;
60582;SDS011;46415;47.536;19.066;2022-11-27T14:46:40;15.35;;;6.93;;
60582;SDS011;46415;47.536;19.066;2022-11-27T14:49:45;20.45;;;7.37;;
60582;SDS011;46415;47.536;19.066;2022-11-27T14:52:54;12.43;;;6.03;;
60582;SDS011;46415;47.536;19.066;2022-11-27T14:55:58;12.27;;;7.10;;
60582;SDS011;46415;47.536;19.066;2022-11-27T14:59:02;11.15;;;6.00;;
60582;SDS011;46415;47.536;19.066;2022-11-27T15:05:48;15.35;;;8.25;;
60582;SDS011;46415;47.536;19.066;2022-11-27T15:08:38;14.07;;;7.62;;
60582;SDS011;46415;47.536;19.066;2022-11-27T15:11:41;14.50;;;8.10;;
60582;SDS011;46415;47.536;19.066;2022-11-27T15:14:59;16.83;;;7.28;;
60582;SDS011;46415;47.536;19.066;2022-11-27T15:18:06;12.23;;;6.12;;
60582;SDS011;46415;47.536;19.066;2022-11-27T15:21:10;16.33;;;7.60;;
60582;SDS011;46415;47.536;19.066;2022-11-27T15:24:36;16.87;;;7.90;;
60582;SDS011;46415;47.536;19.066;2022-11-27T15:27:45;10.68;;;7.05;;
60582;SDS011;46415;47.536;19.066;2022-11-27T15:30:49;15.70;;;7.22;;
60582;SDS011;46415;47.536;19.066;2022-11-27T15:37:01;8.35;;;5.72;;
60582;SDS011;46415;47.536;19.066;2022-11-27T15:40:42;15.93;;;6.50;;
60582;SDS011;46415;47.536;19.066;2022-11-27T15:43:39;10.73;;;5.80;;
60582;SDS011;46415;47.536;19.066;2022-11-27T15:46:42;9.73;;;5.60;;
60582;SDS011;46415;47.536;19.066;2022-11-27T15:49:44;12.68;;;7.80;;
60582;SDS011;46415;47.536;19.066;2022-11-27T15:52:47;12.52;;;6.50;;
60582;SDS011;46415;47.536;19.066;2022-11-27T15:55:50;13.15;;;6.18;;
60582;SDS011;46415;47.536;19.066;2022-11-27T15:58:53;14.05;;;6.62;;
60582;SDS011;46415;47.536;19.066;2022-11-27T16:01:55;12.30;;;6.85;;
60582;SDS011;46415;47.536;19.066;2022-11-27T16:04:59;14.25;;;6.95;;
60582;SDS011;46415;47.536;19.066;2022-11-27T16:08:01;11.05;;;6.57;;
60582;SDS011;46415;47.536;19.066;2022-11-27T16:11:08;12.73;;;6.20;;
60582;SDS011;46415;47.536;19.066;2022-11-27T16:14:15;11.77;;;6.32;;
60582;SDS011;46415;47.536;19.066;2022-11-27T16:17:18;19.83;;;7.57;;
60582;SDS011;46415;47.536;19.066;2022-11-27T16:20:21;15.98;;;7.80;;
60582;SDS011;46415;47.536;19.066;2022-11-27T16:23:24;16.10;;;7.07;;
60582;SDS011;46415;47.536;19.066;2022-11-27T16:26:27;14.43;;;8.48;;
60582;SDS011;46415;47.536;19.066;2022-11-27T16:29:30;16.23;;;7.62;;
60582;SDS011;46415;47.536;19.066;2022-11-27T16:32:36;13.88;;;6.62;;
60582;SDS011;46415;47.536;19.066;2022-11-27T16:35:39;13.40;;;6.47;;
60582;SDS011;46415;47.536;19.066;2022-11-27T16:38:42;16.70;;;7.53;;
60582;SDS011;46415;47.536;19.066;2022-11-27T16:41:46;13.82;;;6.65;;
60582;SDS011;46415;47.536;19.066;2022-11-27T16:44:49;14.87;;;7.37;;
60582;SDS011;46415;47.536;19.066;2022-11-27T16:47:51;14.68;;;7.50;;
60582;SDS011;46415;47.536;19.066;2022-11-27T16:51:04;15.82;;;6.53;;
60582;SDS011;46415;47.536;19.066;2022-11-27T16:54:10;12.37;;;6.75;;
60582;SDS011;46415;47.536;19.066;2022-11-27T16:57:14;13.80;;;7.55;;
60582;SDS011;46415;47.536;19.066;2022-11-27T17:00:17;16.80;;;7.15;;
60582;SDS011;46415;47.536;19.066;2022-11-27T17:03:20;11.85;;;6.70;;
60582;SDS011;46415;47.536;19.066;2022-11-27T17:06:27;12.27;;;6.57;;
60582;SDS011;46415;47.536;19.066;2022-11-27T17:09:30;14.60;;;6.65;;
60582;SDS011;46415;47.536;19.066;2022-11-27T17:12:33;13.45;;;6.05;;
60582;SDS011;46415;47.536;19.066;2022-11-27T17:15:36;12.07;;;5.55;;
60582;SDS011;46415;47.536;19.066;2022-11-27T17:18:42;11.43;;;5.45;;
60582;SDS011;46415;47.536;19.066;2022-11-27T17:21:48;15.65;;;5.70;;
60582;SDS011;46415;47.536;19.066;2022-11-27T17:24:51;12.73;;;5.75;;
60582;SDS011;46415;47.536;19.066;2022-11-27T17:27:56;11.00;;;5.78;;
60582;SDS011;46415;47.536;19.066;2022-11-27T17:31:00;9.93;;;4.72;;
60582;SDS011;46415;47.536;19.066;2022-11-27T17:34:03;8.57;;;5.35;;
60582;SDS011;46415;47.536;19.066;2022-11-27T17:37:07;13.50;;;5.50;;
60582;SDS011;46415;47.536;19.066;2022-11-27T17:40:11;12.98;;;6.72;;
60582;SDS011;46415;47.536;19.066;2022-11-27T17:43:14;12.05;;;5.93;;
60582;SDS011;46415;47.536;19.066;2022-11-27T17:46:22;13.18;;;5.65;;
60582;SDS011;46415;47.536;19.066;2022-11-27T17:49:26;8.80;;;4.82;;
60582;SDS011;46415;47.536;19.066;2022-11-27T17:52:29;12.35;;;5.03;;
60582;SDS011;46415;47.536;19.066;2022-11-27T17:55:32;10.38;;;4.97;;
60582;SDS011;46415;47.536;19.066;2022-11-27T17:58:35;16.33;;;6.57;;
60582;SDS011;46415;47.536;19.066;2022-11-27T18:01:39;11.32;;;5.20;;
60582;SDS011;46415;47.536;19.066;2022-11-27T18:04:41;11.12;;;4.65;;
60582;SDS011;46415;47.536;19.066;2022-11-27T18:07:46;9.80;;;5.70;;
60582;SDS011;46415;47.536;19.066;2022-11-27T18:10:49;8.73;;;4.95;;
60582;SDS011;46415;47.536;19.066;2022-11-27T18:13:55;8.30;;;4.90;;
60582;SDS011;46415;47.536;19.066;2022-11-27T18:16:59;14.18;;;5.35;;
60582;SDS011;46415;47.536;19.066;2022-11-27T18:20:08;9.88;;;5.85;;
60582;SDS011;46415;47.536;19.066;2022-11-27T18:23:11;9.82;;;5.53;;
60582;SDS011;46415;47.536;19.066;2022-11-27T18:26:16;12.82;;;6.37;;
60582;SDS011;46415;47.536;19.066;2022-11-27T18:29:21;7.75;;;5.07;;
60582;SDS011;46415;47.536;19.066;2022-11-27T18:32:23;15.60;;;6.18;;
60582;SDS011;46415;47.536;19.066;2022-11-27T18:35:26;10.15;;;5.15;;
60582;SDS011;46415;47.536;19.066;2022-11-27T18:38:29;9.35;;;5.05;;
60582;SDS011;46415;47.536;19.066;2022-11-27T18:41:35;9.80;;;5.62;;
60582;SDS011;46415;47.536;19.066;2022-11-27T18:44:39;10.55;;;6.93;;
60582;SDS011;46415;47.536;19.066;2022-11-27T18:47:46;13.00;;;6.17;;
60582;SDS011;46415;47.536;19.066;2022-11-27T18:50:49;14.02;;;6.93;;
60582;SDS011;46415;47.536;19.066;2022-11-27T18:53:52;14.48;;;7.82;;
60582;SDS011;46415;47.536;19.066;2022-11-27T18:56:55;9.30;;;5.40;;
60582;SDS011;46415;47.536;19.066;2022-11-27T18:59:58;11.10;;;6.32;;
60582;SDS011;46415;47.536;19.066;2022-11-27T19:03:03;16.87;;;7.68;;
60582;SDS011;46415;47.536;19.066;2022-11-27T19:06:07;15.77;;;7.35;;
60582;SDS011;46415;47.536;19.066;2022-11-27T19:09:11;19.40;;;8.02;;
60582;SDS011;46415;47.536;19.066;2022-11-27T19:12:17;18.35;;;7.93;;
60582;SDS011;46415;47.536;19.066;2022-11-27T19:15:20;14.40;;;7.05;;
60582;SDS011;46415;47.536;19.066;2022-11-27T19:18:23;14.80;;;8.18;;
60582;SDS011;46415;47.536;19.066;2022-11-27T19:21:27;16.75;;;9.65;;
60582;SDS011;46415;47.536;19.066;2022-11-27T19:24:31;19.65;;;8.10;;
60582;SDS011;46415;47.536;19.066;2022-11-27T19:27:34;15.55;;;9.02;;
60582;SDS011;46415;47.536;19.066;2022-11-27T19:30:38;16.80;;;8.98;;
60582;SDS011;46415;47.536;19.066;2022-11-27T19:33:43;23.58;;;9.38;;
60582;SDS011;46415;47.536;19.066;2022-11-27T19:36:46;17.23;;;9.40;;
60582;SDS011;46415;47.536;19.066;2022-11-27T19:39:48;16.33;;;9.25;;